New Lisbon, Indiana
Current Conditions -  °F | °C
As of 8:53 AM on Monday 24 Nov 2014 (Local Time) from KMIE Reporting Station
Broken Clouds Broken Clouds  
Wind Chill: 13°   Ceiling: 2500
Heat Index: 13°   Visibility: 10mi
Dew Point: 10°   Wind: 16mph
Humidity: 80%   Direction: 220°SW
Pressure: 29.2"   Gusts: 28mph
Location:  39.86°N, 85.26°W
Report Text: KMIE 241353Z 22014G24KT 10SM BKN025 13/10 A2920 RMK AO2 PK WND 21028/1301 SLP882 T01330100
Loading
Personal Weather Stations






























Interactive Weather Map New forecast layout! Learn more

10-Day Weather Forecast

Advertisements
Track Severe Weather on mobile